sensor_id;sensor_type;location;lat;lon;timestamp;pressure;altitude;pressure_sealevel;temperature;humidity
34073;BME280;20346;52.702;16.886;2022-11-20T00:00:16;100426.52;;;-0.81;77.74
34073;BME280;20346;52.702;16.886;2022-11-20T00:03:01;100429.09;;;-0.79;77.81
34073;BME280;20346;52.702;16.886;2022-11-20T00:05:46;100431.67;;;-0.78;77.82
34073;BME280;20346;52.702;16.886;2022-11-20T00:08:31;100429.13;;;-0.78;77.77
34073;BME280;20346;52.702;16.886;2022-11-20T00:11:19;100432.94;;;-0.78;77.78
34073;BME280;20346;52.702;16.886;2022-11-20T00:14:04;100435.11;;;-0.76;77.79
34073;BME280;20346;52.702;16.886;2022-11-20T00:16:49;100429.58;;;-0.77;77.80
34073;BME280;20346;52.702;16.886;2022-11-20T00:19:34;100431.27;;;-0.77;77.85
34073;BME280;20346;52.702;16.886;2022-11-20T00:22:19;100431.67;;;-0.78;77.85
34073;BME280;20346;52.702;16.886;2022-11-20T00:25:04;100433.80;;;-0.77;77.90
34073;BME280;20346;52.702;16.886;2022-11-20T00:27:50;100437.61;;;-0.77;77.93
34073;BME280;20346;52.702;16.886;2022-11-20T00:30:35;100440.15;;;-0.77;77.95
34073;BME280;20346;52.702;16.886;2022-11-20T00:33:20;100435.06;;;-0.77;77.96
34073;BME280;20346;52.702;16.886;2022-11-20T00:36:06;100437.20;;;-0.77;78.04
34073;BME280;20346;52.702;16.886;2022-11-20T00:38:54;100434.70;;;-0.75;78.09
34073;BME280;20346;52.702;16.886;2022-11-20T00:41:40;100435.60;;;-0.73;78.08
34073;BME280;20346;52.702;16.886;2022-11-20T00:44:25;100436.05;;;-0.72;78.09
34073;BME280;20346;52.702;16.886;2022-11-20T00:47:10;100436.46;;;-0.73;78.11
34073;BME280;20346;52.702;16.886;2022-11-20T00:49:55;100445.80;;;-0.72;78.10
34073;BME280;20346;52.702;16.886;2022-11-20T00:55:19;100442.89;;;-0.70;78.04
34073;BME280;20346;52.702;16.886;2022-11-20T00:58:05;100442.81;;;-0.73;78.15
34073;BME280;20346;52.702;16.886;2022-11-20T01:00:50;100444.12;;;-0.71;78.19
34073;BME280;20346;52.702;16.886;2022-11-20T01:03:38;100447.52;;;-0.71;78.18
34073;BME280;20346;52.702;16.886;2022-11-20T01:06:30;100448.34;;;-0.72;78.20
34073;BME280;20346;52.702;16.886;2022-11-20T01:09:17;100447.11;;;-0.70;78.22
34073;BME280;20346;52.702;16.886;2022-11-20T01:12:02;100452.19;;;-0.70;78.24
34073;BME280;20346;52.702;16.886;2022-11-20T01:14:47;100446.66;;;-0.71;78.22
34073;BME280;20346;52.702;16.886;2022-11-20T01:17:32;100452.10;;;-0.73;78.19
34073;BME280;20346;52.702;16.886;2022-11-20T01:20:17;100450.83;;;-0.73;78.23
34073;BME280;20346;52.702;16.886;2022-11-20T01:23:03;100448.25;;;-0.75;78.28
34073;BME280;20346;52.702;16.886;2022-11-20T01:25:48;100444.86;;;-0.75;78.30
34073;BME280;20346;52.702;16.886;2022-11-20T01:28:34;100446.94;;;-0.76;78.29
34073;BME280;20346;52.702;16.886;2022-11-20T01:34:13;100446.94;;;-0.76;78.38
34073;BME280;20346;52.702;16.886;2022-11-20T01:37:00;100443.13;;;-0.76;78.38
34073;BME280;20346;52.702;16.886;2022-11-20T01:39:46;100449.48;;;-0.76;78.38
34073;BME280;20346;52.702;16.886;2022-11-20T01:42:31;100449.89;;;-0.77;78.36
34073;BME280;20346;52.702;16.886;2022-11-20T01:46:02;100444.81;;;-0.77;78.38
34073;BME280;20346;52.702;16.886;2022-11-20T01:49:04;100448.17;;;-0.78;78.41
34073;BME280;20346;52.702;16.886;2022-11-20T01:52:16;100453.66;;;-0.78;78.39
34073;BME280;20346;52.702;16.886;2022-11-20T01:55:12;100448.13;;;-0.79;78.42
34073;BME280;20346;52.702;16.886;2022-11-20T01:57:59;100441.33;;;-0.80;78.42
34073;BME280;20346;52.702;16.886;2022-11-20T02:00:45;100435.80;;;-0.81;78.44
34073;BME280;20346;52.702;16.886;2022-11-20T02:03:30;100441.33;;;-0.80;78.47
34073;BME280;20346;52.702;16.886;2022-11-20T02:06:31;100419.06;;;-0.90;78.42
34073;BME280;20346;52.702;16.886;2022-11-20T02:09:20;100434.08;;;-0.82;78.49
34073;BME280;20346;52.702;16.886;2022-11-20T02:12:05;100439.61;;;-0.81;78.51
34073;BME280;20346;52.702;16.886;2022-11-20T02:14:52;100434.98;;;-0.80;78.51
34073;BME280;20346;52.702;16.886;2022-11-20T02:17:37;100430.77;;;-0.80;78.54
34073;BME280;20346;52.702;16.886;2022-11-20T02:20:22;100434.13;;;-0.81;78.54
34073;BME280;20346;52.702;16.886;2022-11-20T02:23:12;100435.39;;;-0.81;78.53
34073;BME280;20346;52.702;16.886;2022-11-20T02:26:12;100432.86;;;-0.81;78.57
34073;BME280;20346;52.702;16.886;2022-11-20T02:28:59;100430.73;;;-0.81;78.56
34073;BME280;20346;52.702;16.886;2022-11-20T02:31:45;100427.78;;;-0.81;78.57
34073;BME280;20346;52.702;16.886;2022-11-20T02:34:31;100426.92;;;-0.81;78.56
34073;BME280;20346;52.702;16.886;2022-11-20T02:37:15;100422.66;;;-0.82;78.57
34073;BME280;20346;52.702;16.886;2022-11-20T02:40:01;100422.25;;;-0.82;78.56
34073;BME280;20346;52.702;16.886;2022-11-20T02:42:46;100429.01;;;-0.82;78.58
34073;BME280;20346;52.702;16.886;2022-11-20T02:45:30;100434.95;;;-0.82;78.63
34073;BME280;20346;52.702;16.886;2022-11-20T02:48:15;100431.59;;;-0.81;78.63
34073;BME280;20346;52.702;16.886;2022-11-20T02:51:00;100433.72;;;-0.80;78.66
34073;BME280;20346;52.702;16.886;2022-11-20T02:53:45;100425.73;;;-0.78;78.67
34073;BME280;20346;52.702;16.886;2022-11-20T02:56:31;100430.44;;;-0.76;78.65
34073;BME280;20346;52.702;16.886;2022-11-20T02:59:16;100427.45;;;-0.77;78.66
34073;BME280;20346;52.702;16.886;2022-11-20T03:02:00;100428.31;;;-0.77;78.70
34073;BME280;20346;52.702;16.886;2022-11-20T03:04:45;100428.31;;;-0.77;78.68
34073;BME280;20346;52.702;16.886;2022-11-20T03:07:30;100429.63;;;-0.75;78.74
34073;BME280;20346;52.702;16.886;2022-11-20T03:10:15;100431.34;;;-0.74;78.73
34073;BME280;20346;52.702;16.886;2022-11-20T03:13:00;100425.89;;;-0.72;78.75
34073;BME280;20346;52.702;16.886;2022-11-20T03:15:45;100429.34;;;-0.70;78.75
34073;BME280;20346;52.702;16.886;2022-11-20T03:18:30;100432.28;;;-0.71;78.78
34073;BME280;20346;52.702;16.886;2022-11-20T03:21:15;100428.92;;;-0.70;78.79
34073;BME280;20346;52.702;16.886;2022-11-20T03:24:00;100434.86;;;-0.69;78.80
34073;BME280;20346;52.702;16.886;2022-11-20T03:26:45;100426.02;;;-0.68;78.83
34073;BME280;20346;52.702;16.886;2022-11-20T03:29:30;100429.01;;;-0.67;78.82
34073;BME280;20346;52.702;16.886;2022-11-20T03:32:15;100426.09;;;-0.64;78.85
34073;BME280;20346;52.702;16.886;2022-11-20T03:35:00;100421.47;;;-0.63;78.87
34073;BME280;20346;52.702;16.886;2022-11-20T03:37:46;100424.46;;;-0.62;78.86
34073;BME280;20346;52.702;16.886;2022-11-20T03:40:31;100418.52;;;-0.63;78.88
34073;BME280;20346;52.702;16.886;2022-11-20T03:43:15;100417.30;;;-0.61;78.85
34073;BME280;20346;52.702;16.886;2022-11-20T03:46:01;100418.93;;;-0.63;78.84
34073;BME280;20346;52.702;16.886;2022-11-20T03:48:45;100417.70;;;-0.62;78.89
34073;BME280;20346;52.702;16.886;2022-11-20T03:51:32;100418.97;;;-0.62;78.92
34073;BME280;20346;52.702;16.886;2022-11-20T03:54:18;100419.42;;;-0.61;78.92
34073;BME280;20346;52.702;16.886;2022-11-20T03:57:03;100417.70;;;-0.62;78.91
34073;BME280;20346;52.702;16.886;2022-11-20T03:59:48;100410.53;;;-0.61;78.92
34073;BME280;20346;52.702;16.886;2022-11-20T04:02:34;100412.21;;;-0.61;78.94
34073;BME280;20346;52.702;16.886;2022-11-20T04:05:19;100406.73;;;-0.61;78.99
34073;BME280;20346;52.702;16.886;2022-11-20T04:08:04;100410.16;;;-0.59;78.98
34073;BME280;20346;52.702;16.886;2022-11-20T04:10:49;100410.57;;;-0.59;78.98
34073;BME280;20346;52.702;16.886;2022-11-20T04:13:34;100412.66;;;-0.60;78.97
34073;BME280;20346;52.702;16.886;2022-11-20T04:16:20;100421.14;;;-0.60;78.99
34073;BME280;20346;52.702;16.886;2022-11-20T04:19:08;100415.66;;;-0.59;79.02
34073;BME280;20346;52.702;16.886;2022-11-20T04:21:54;100406.36;;;-0.59;79.07
34073;BME280;20346;52.702;16.886;2022-11-20T04:24:39;100405.53;;;-0.58;79.04
34073;BME280;20346;52.702;16.886;2022-11-20T04:27:24;100404.27;;;-0.58;79.05
34073;BME280;20346;52.702;16.886;2022-11-20T04:30:10;100404.72;;;-0.57;79.07
34073;BME280;20346;52.702;16.886;2022-11-20T04:32:55;100401.80;;;-0.55;79.09
34073;BME280;20346;52.702;16.886;2022-11-20T04:35:40;100396.31;;;-0.54;79.08
34073;BME280;20346;52.702;16.886;2022-11-20T04:38:27;100397.58;;;-0.54;79.06
34073;BME280;20346;52.702;16.886;2022-11-20T04:41:17;100394.64;;;-0.54;79.11
34073;BME280;20346;52.702;16.886;2022-11-20T04:44:04;100400.49;;;-0.56;79.08
34073;BME280;20346;52.702;16.886;2022-11-20T04:46:50;100398.36;;;-0.57;79.13
34073;BME280;20346;52.702;16.886;2022-11-20T04:49:35;100402.63;;;-0.56;79.17
34073;BME280;20346;52.702;16.886;2022-11-20T04:52:20;100397.13;;;-0.55;79.15
34073;BME280;20346;52.702;16.886;2022-11-20T04:55:05;100397.95;;;-0.56;79.13
34073;BME280;20346;52.702;16.886;2022-11-20T04:57:51;100398.78;;;-0.57;79.14
34073;BME280;20346;52.702;16.886;2022-11-20T05:00:35;100394.55;;;-0.57;79.19
34073;BME280;20346;52.702;16.886;2022-11-20T05:03:20;100392.47;;;-0.56;79.22
34073;BME280;20346;52.702;16.886;2022-11-20T05:06:06;100392.05;;;-0.55;79.19
34073;BME280;20346;52.702;16.886;2022-11-20T05:08:51;100393.25;;;-0.58;79.16
34073;BME280;20346;52.702;16.886;2022-11-20T05:11:36;100395.38;;;-0.58;79.23
34073;BME280;20346;52.702;16.886;2022-11-20T05:14:21;100395.79;;;-0.58;79.23
34073;BME280;20346;52.702;16.886;2022-11-20T05:17:09;100396.16;;;-0.60;79.22
34073;BME280;20346;52.702;16.886;2022-11-20T05:19:55;100389.44;;;-0.58;79.31
34073;BME280;20346;52.702;16.886;2022-11-20T05:22:40;100387.76;;;-0.58;79.27
34073;BME280;20346;52.702;16.886;2022-11-20T05:25:25;100399.19;;;-0.58;79.29
34073;BME280;20346;52.702;16.886;2022-11-20T05:28:10;100398.73;;;-0.59;79.31
34073;BME280;20346;52.702;16.886;2022-11-20T05:30:55;100399.63;;;-0.57;79.34
34073;BME280;20346;52.702;16.886;2022-11-20T05:33:41;100397.55;;;-0.56;79.34
34073;BME280;20346;52.702;16.886;2022-11-20T05:36:27;100395.01;;;-0.56;79.36
34073;BME280;20346;52.702;16.886;2022-11-20T05:39:12;100388.25;;;-0.55;79.36
34073;BME280;20346;52.702;16.886;2022-11-20T05:41:57;100389.06;;;-0.56;79.36
34073;BME280;20346;52.702;16.886;2022-11-20T05:45:01;100392.87;;;-0.56;79.36
34073;BME280;20346;52.702;16.886;2022-11-20T05:47:48;100390.75;;;-0.57;79.40
34073;BME280;20346;52.702;16.886;2022-11-20T05:50:33;100395.01;;;-0.56;79.42
34073;BME280;20346;52.702;16.886;2022-11-20T05:53:17;100394.19;;;-0.55;79.42
34073;BME280;20346;52.702;16.886;2022-11-20T05:56:09;100395.45;;;-0.55;79.46
34073;BME280;20346;52.702;16.886;2022-11-20T05:58:55;100396.77;;;-0.53;79.48
34073;BME280;20346;52.702;16.886;2022-11-20T06:01:40;100398.48;;;-0.52;79.47
34073;BME280;20346;52.702;16.886;2022-11-20T06:04:26;100392.13;;;-0.52;79.52
34073;BME280;20346;52.702;16.886;2022-11-20T06:07:12;100387.88;;;-0.52;79.55
34073;BME280;20346;52.702;16.886;2022-11-20T06:09:56;100394.72;;;-0.49;79.57
34073;BME280;20346;52.702;16.886;2022-11-20T06:12:41;100386.23;;;-0.50;79.55
34073;BME280;20346;52.702;16.886;2022-11-20T06:15:26;100391.36;;;-0.48;79.56
34073;BME280;20346;52.702;16.886;2022-11-20T06:18:11;100383.28;;;-0.49;79.55
34073;BME280;20346;52.702;16.886;2022-11-20T06:21:02;100388.37;;;-0.49;79.57
34073;BME280;20346;52.702;16.886;2022-11-20T06:23:51;100392.22;;;-0.48;79.59
34073;BME280;20346;52.702;16.886;2022-11-20T06:26:37;100396.44;;;-0.48;79.59
34073;BME280;20346;52.702;16.886;2022-11-20T06:29:21;100398.16;;;-0.47;79.61
34073;BME280;20346;52.702;16.886;2022-11-20T06:32:06;100389.27;;;-0.47;79.65
34073;BME280;20346;52.702;16.886;2022-11-20T06:34:51;100392.25;;;-0.46;79.65
34073;BME280;20346;52.702;16.886;2022-11-20T06:37:36;100391.84;;;-0.46;79.65
34073;BME280;20346;52.702;16.886;2022-11-20T06:40:21;100391.84;;;-0.46;79.66
34073;BME280;20346;52.702;16.886;2022-11-20T06:43:07;100389.30;;;-0.46;79.69
34073;BME280;20346;52.702;16.886;2022-11-20T06:45:56;100395.28;;;-0.44;79.73
34073;BME280;20346;52.702;16.886;2022-11-20T06:48:42;100396.59;;;-0.42;79.73
34073;BME280;20346;52.702;16.886;2022-11-20T06:51:27;100399.58;;;-0.41;79.74
34073;BME280;20346;52.702;16.886;2022-11-20T06:54:12;100396.63;;;-0.41;79.70
34073;BME280;20346;52.702;16.886;2022-11-20T06:56:57;100396.63;;;-0.41;79.75
34073;BME280;20346;52.702;16.886;2022-11-20T06:59:42;100394.09;;;-0.41;79.79
34073;BME280;20346;52.702;16.886;2022-11-20T07:02:30;100390.69;;;-0.41;79.76
34073;BME280;20346;52.702;16.886;2022-11-20T07:05:15;100390.72;;;-0.40;79.81
34073;BME280;20346;52.702;16.886;2022-11-20T07:08:01;100383.97;;;-0.39;79.80
34073;BME280;20346;52.702;16.886;2022-11-20T07:10:47;100383.55;;;-0.39;79.97
34073;BME280;20346;52.702;16.886;2022-11-20T07:13:33;100379.78;;;-0.37;79.89
34073;BME280;20346;52.702;16.886;2022-11-20T07:16:18;100384.90;;;-0.36;79.90
34073;BME280;20346;52.702;16.886;2022-11-20T07:19:02;100379.00;;;-0.35;79.93
34073;BME280;20346;52.702;16.886;2022-11-20T07:21:48;100378.63;;;-0.32;79.99
34073;BME280;20346;52.702;16.886;2022-11-20T07:24:33;100373.61;;;-0.29;79.98
34073;BME280;20346;52.702;16.886;2022-11-20T07:27:18;100374.84;;;-0.31;79.96
34073;BME280;20346;52.702;16.886;2022-11-20T07:30:04;100371.08;;;-0.29;79.93
34073;BME280;20346;52.702;16.886;2022-11-20T07:32:53;100369.84;;;-0.28;79.95
34073;BME280;20346;52.702;16.886;2022-11-20T07:35:39;100364.80;;;-0.26;80.00
34073;BME280;20346;52.702;16.886;2022-11-20T07:38:24;100366.55;;;-0.24;79.97
34073;BME280;20346;52.702;16.886;2022-11-20T07:41:08;100362.77;;;-0.22;80.01
34073;BME280;20346;52.702;16.886;2022-11-20T07:43:53;100366.69;;;-0.18;80.02
34073;BME280;20346;52.702;16.886;2022-11-20T07:46:38;100368.41;;;-0.17;79.95
34073;BME280;20346;52.702;16.886;2022-11-20T07:49:24;100365.83;;;-0.18;79.98
34073;BME280;20346;52.702;16.886;2022-11-20T07:52:09;100370.92;;;-0.18;80.00
34073;BME280;20346;52.702;16.886;2022-11-20T07:54:54;100367.96;;;-0.18;80.03
34073;BME280;20346;52.702;16.886;2022-11-20T07:57:39;100361.68;;;-0.15;80.07
34073;BME280;20346;52.702;16.886;2022-11-20T08:00:25;100363.84;;;-0.13;80.07
34073;BME280;20346;52.702;16.886;2022-11-20T08:03:10;100360.45;;;-0.13;80.03
34073;BME280;20346;52.702;16.886;2022-11-20T08:06:00;100360.08;;;-0.11;80.05
34073;BME280;20346;52.702;16.886;2022-11-20T08:08:45;100361.79;;;-0.10;80.01
34073;BME280;20346;52.702;16.886;2022-11-20T08:11:29;100368.55;;;-0.11;80.02
34073;BME280;20346;52.702;16.886;2022-11-20T08:14:32;100357.98;;;-0.10;79.98
34073;BME280;20346;52.702;16.886;2022-11-20T08:17:17;100361.79;;;-0.10;79.98
34073;BME280;20346;52.702;16.886;2022-11-20T08:20:03;100363.84;;;-0.13;79.89
34073;BME280;20346;52.702;16.886;2022-11-20T08:22:48;100358.32;;;-0.14;79.94
34073;BME280;20346;52.702;16.886;2022-11-20T08:25:35;100355.02;;;-0.10;80.02
34073;BME280;20346;52.702;16.886;2022-11-20T08:28:20;100357.94;;;-0.12;79.88
34073;BME280;20346;52.702;16.886;2022-11-20T08:31:05;100355.40;;;-0.12;79.92
34073;BME280;20346;52.702;16.886;2022-11-20T08:33:51;100349.88;;;-0.13;79.91
34073;BME280;20346;52.702;16.886;2022-11-20T08:36:36;100351.63;;;-0.10;79.94
34073;BME280;20346;52.702;16.886;2022-11-20T08:39:21;100349.98;;;-0.08;79.88
34073;BME280;20346;52.702;16.886;2022-11-20T08:42:09;100348.73;;;-0.07;79.93
34073;BME280;20346;52.702;16.886;2022-11-20T08:44:54;100344.55;;;-0.05;79.86
34073;BME280;20346;52.702;16.886;2022-11-20T08:47:39;100346.30;;;-0.02;79.89
34073;BME280;20346;52.702;16.886;2022-11-20T08:50:24;100341.67;;;0.00;79.89
34073;BME280;20346;52.702;16.886;2022-11-20T08:53:09;100343.80;;;-0.01;79.85
34073;BME280;20346;52.702;16.886;2022-11-20T08:55:53;100342.56;;;0.03;79.92
34073;BME280;20346;52.702;16.886;2022-11-20T08:58:39;100337.09;;;0.05;79.87
34073;BME280;20346;52.702;16.886;2022-11-20T09:01:24;100336.72;;;0.07;79.93
34073;BME280;20346;52.702;16.886;2022-11-20T09:04:09;100339.67;;;0.06;79.84
34073;BME280;20346;52.702;16.886;2022-11-20T09:06:55;100342.63;;;0.06;79.85
34073;BME280;20346;52.702;16.886;2022-11-20T09:09:40;100338.81;;;0.06;79.89
34073;BME280;20346;52.702;16.886;2022-11-20T09:12:25;100342.22;;;0.06;79.86
34073;BME280;20346;52.702;16.886;2022-11-20T09:15:10;100336.66;;;0.04;79.87
34073;BME280;20346;52.702;16.886;2022-11-20T09:17:59;100328.65;;;0.06;79.91
34073;BME280;20346;52.702;16.886;2022-11-20T09:20:45;100331.60;;;0.05;79.89
34073;BME280;20346;52.702;16.886;2022-11-20T09:23:33;100332.91;;;0.07;79.94
34073;BME280;20346;52.702;16.886;2022-11-20T09:26:18;100332.97;;;0.10;80.04
34073;BME280;20346;52.702;16.886;2022-11-20T09:29:03;100330.09;;;0.13;80.00
34073;BME280;20346;52.702;16.886;2022-11-20T09:31:48;100324.14;;;0.13;79.95
34073;BME280;20346;52.702;16.886;2022-11-20T09:34:33;100322.49;;;0.15;80.00
34073;BME280;20346;52.702;16.886;2022-11-20T09:37:18;100325.48;;;0.16;79.99
34073;BME280;20346;52.702;16.886;2022-11-20T09:40:03;100327.23;;;0.18;80.00
34073;BME280;20346;52.702;16.886;2022-11-20T09:46:37;100325.36;;;0.30;80.06
34073;BME280;20346;52.702;16.886;2022-11-20T09:50:10;100321.16;;;0.32;79.95
34073;BME280;20346;52.702;16.886;2022-11-20T09:55:49;100318.39;;;0.42;79.95
34073;BME280;20346;52.702;16.886;2022-11-20T09:58:43;100312.98;;;0.47;79.97
34073;BME280;20346;52.702;16.886;2022-11-20T10:01:36;100316.03;;;0.51;79.99
34073;BME280;20346;52.702;16.886;2022-11-20T10:04:20;100306.33;;;0.55;79.96
34073;BME280;20346;52.702;16.886;2022-11-20T10:07:14;100300.95;;;0.61;80.00
34073;BME280;20346;52.702;16.886;2022-11-20T10:10:00;100300.63;;;0.66;79.94
34073;BME280;20346;52.702;16.886;2022-11-20T10:25:22;100298.39;;;0.83;79.80
34073;BME280;20346;52.702;16.886;2022-11-20T10:31:34;100290.81;;;0.86;79.83
34073;BME280;20346;52.702;16.886;2022-11-20T10:37:17;100292.44;;;0.83;79.85
34073;BME280;20346;52.702;16.886;2022-11-20T10:44:15;100285.78;;;0.89;79.91
34073;BME280;20346;52.702;16.886;2022-11-20T10:46:17;100271.41;;;0.93;79.87
34073;BME280;20346;52.702;16.886;2022-11-20T10:49:17;100278.27;;;0.97;79.90
34073;BME280;20346;52.702;16.886;2022-11-20T10:58:31;100277.23;;;1.12;79.90
34073;BME280;20346;52.702;16.886;2022-11-20T11:01:21;100278.60;;;1.18;79.94
34073;BME280;20346;52.702;16.886;2022-11-20T11:04:51;100282.50;;;1.23;79.92
34073;BME280;20346;52.702;16.886;2022-11-20T11:07:30;100280.86;;;1.26;79.79
34073;BME280;20346;52.702;16.886;2022-11-20T11:10:21;100280.49;;;1.30;79.82
34073;BME280;20346;52.702;16.886;2022-11-20T11:13:07;100277.58;;;1.33;79.83
34073;BME280;20346;52.702;16.886;2022-11-20T11:16:04;100282.23;;;1.32;79.79
34073;BME280;20346;52.702;16.886;2022-11-20T11:18:49;100280.17;;;1.37;79.66
34073;BME280;20346;52.702;16.886;2022-11-20T11:21:34;100271.63;;;1.33;79.55
34073;BME280;20346;52.702;16.886;2022-11-20T11:24:28;100274.59;;;1.32;79.70
34073;BME280;20346;52.702;16.886;2022-11-20T11:27:14;100266.17;;;1.37;79.84
34073;BME280;20346;52.702;16.886;2022-11-20T11:30:11;100277.67;;;1.40;79.75
34073;BME280;20346;52.702;16.886;2022-11-20T11:33:06;100275.63;;;1.44;79.75
34073;BME280;20346;52.702;16.886;2022-11-20T11:35:56;100268.91;;;1.49;79.82
34073;BME280;20346;52.702;16.886;2022-11-20T11:38:44;100265.11;;;1.50;79.73
34073;BME280;20346;52.702;16.886;2022-11-20T11:41:34;100273.22;;;1.53;79.80
34073;BME280;20346;52.702;16.886;2022-11-20T11:44:28;100268.51;;;1.51;79.57
34073;BME280;20346;52.702;16.886;2022-11-20T11:50:29;100273.95;;;1.46;79.60
34073;BME280;20346;52.702;16.886;2022-11-20T11:53:17;100266.31;;;1.46;79.71
34073;BME280;20346;52.702;16.886;2022-11-20T11:56:08;100267.14;;;1.45;79.57
34073;BME280;20346;52.702;16.886;2022-11-20T11:58:56;100257.32;;;1.41;79.64
34073;BME280;20346;52.702;16.886;2022-11-20T12:01:47;100256.88;;;1.40;79.67
34073;BME280;20346;52.702;16.886;2022-11-20T12:04:49;100248.80;;;1.39;79.71
34073;BME280;20346;52.702;16.886;2022-11-20T12:07:47;100254.36;;;1.42;79.74
34073;BME280;20346;52.702;16.886;2022-11-20T12:14:21;100250.56;;;1.43;79.71
34073;BME280;20346;52.702;16.886;2022-11-20T12:17:12;100250.17;;;1.45;79.65
34073;BME280;20346;52.702;16.886;2022-11-20T12:19:58;100250.09;;;1.41;79.60
34073;BME280;20346;52.702;16.886;2022-11-20T12:22:56;100247.45;;;1.35;79.52
34073;BME280;20346;52.702;16.886;2022-11-20T12:25:48;100246.11;;;1.30;79.47
34073;BME280;20346;52.702;16.886;2022-11-20T12:29:23;100249.03;;;1.26;79.51
34073;BME280;20346;52.702;16.886;2022-11-20T12:34:58;100241.29;;;1.20;79.43
34073;BME280;20346;52.702;16.886;2022-11-20T12:51:34;100229.39;;;1.19;79.45
34073;BME280;20346;52.702;16.886;2022-11-20T12:58:27;100215.88;;;1.23;79.45
34073;BME280;20346;52.702;16.886;2022-11-20T13:00:48;100210.36;;;1.24;79.41
34073;BME280;20346;52.702;16.886;2022-11-20T13:03:45;100220.97;;;1.23;79.30
34073;BME280;20346;52.702;16.886;2022-11-20T13:06:28;100216.66;;;1.19;79.28
34073;BME280;20346;52.702;16.886;2022-11-20T13:09:15;100214.55;;;1.20;79.24
34073;BME280;20346;52.702;16.886;2022-11-20T13:18:20;100199.73;;;1.23;79.29
34073;BME280;20346;52.702;16.886;2022-11-20T13:21:18;100200.16;;;1.22;79.29
34073;BME280;20346;52.702;16.886;2022-11-20T13:24:25;100198.91;;;1.24;79.29
34073;BME280;20346;52.702;16.886;2022-11-20T13:30:15;100194.62;;;1.21;79.28
34073;BME280;20346;52.702;16.886;2022-11-20T13:33:07;100192.47;;;1.19;79.24
34073;BME280;20346;52.702;16.886;2022-11-20T13:36:04;100192.47;;;1.19;79.26
34073;BME280;20346;52.702;16.886;2022-11-20T13:38:49;100189.90;;;1.18;79.23
34073;BME280;20346;52.702;16.886;2022-11-20T13:41:37;100188.63;;;1.18;79.21
34073;BME280;20346;52.702;16.886;2022-11-20T13:44:27;100189.90;;;1.18;79.22
34073;BME280;20346;52.702;16.886;2022-11-20T13:47:21;100191.12;;;1.15;79.21
34073;BME280;20346;52.702;16.886;2022-11-20T13:50:08;100191.08;;;1.12;79.14
34073;BME280;20346;52.702;16.886;2022-11-20T14:02:37;100189.98;;;0.94;79.05
34073;BME280;20346;52.702;16.886;2022-11-20T14:05:23;100179.31;;;0.90;79.04
34073;BME280;20346;52.702;16.886;2022-11-20T14:08:13;100183.89;;;0.85;79.00
34073;BME280;20346;52.702;16.886;2022-11-20T14:14:20;100183.79;;;0.79;79.00
34073;BME280;20346;52.702;16.886;2022-11-20T14:17:21;100178.18;;;0.73;78.95
34073;BME280;20346;52.702;16.886;2022-11-20T14:20:12;100177.72;;;0.71;78.92
34073;BME280;20346;52.702;16.886;2022-11-20T14:22:59;100179.80;;;0.68;78.95
34073;BME280;20346;52.702;16.886;2022-11-20T14:25:45;100181.89;;;0.67;78.92
34073;BME280;20346;52.702;16.886;2022-11-20T14:28:30;100179.69;;;0.62;78.86
34073;BME280;20346;52.702;16.886;2022-11-20T14:31:23;100178.83;;;0.61;78.88
34073;BME280;20346;52.702;16.886;2022-11-20T14:34:24;100176.23;;;0.58;78.90
34073;BME280;20346;52.702;16.886;2022-11-20T14:37:12;100175.33;;;0.55;78.82
34073;BME280;20346;52.702;16.886;2022-11-20T14:39:59;100177.42;;;0.54;78.82
34073;BME280;20346;52.702;16.886;2022-11-20T14:42:44;100171.05;;;0.51;78.84
34073;BME280;20346;52.702;16.886;2022-11-20T14:45:29;100171.80;;;0.45;78.75
34073;BME280;20346;52.702;16.886;2022-11-20T14:48:15;100173.02;;;0.42;78.75
34073;BME280;20346;52.702;16.886;2022-11-20T14:51:00;100166.16;;;0.38;78.75
34073;BME280;20346;52.702;16.886;2022-11-20T14:53:45;100161.05;;;0.37;78.77
34073;BME280;20346;52.702;16.886;2022-11-20T14:56:30;100156.76;;;0.34;78.73
34073;BME280;20346;52.702;16.886;2022-11-20T14:59:22;100161.81;;;0.32;78.74
34073;BME280;20346;52.702;16.886;2022-11-20T15:02:12;100160.94;;;0.30;78.77
34073;BME280;20346;52.702;16.886;2022-11-20T15:04:58;100159.66;;;0.30;78.76
34073;BME280;20346;52.702;16.886;2022-11-20T15:07:49;100159.22;;;0.29;78.73
34073;BME280;20346;52.702;16.886;2022-11-20T15:10:53;100158.78;;;0.28;78.71
34073;BME280;20346;52.702;16.886;2022-11-20T15:13:39;100154.49;;;0.26;78.70
34073;BME280;20346;52.702;16.886;2022-11-20T15:16:24;100156.56;;;0.23;78.67
34073;BME280;20346;52.702;16.886;2022-11-20T15:19:23;100157.81;;;0.22;78.68
34073;BME280;20346;52.702;16.886;2022-11-20T15:22:12;100160.73;;;0.20;78.69
34073;BME280;20346;52.702;16.886;2022-11-20T15:24:58;100162.87;;;0.20;78.69
34073;BME280;20346;52.702;16.886;2022-11-20T15:27:43;100159.88;;;0.19;78.74
34073;BME280;20346;52.702;16.886;2022-11-20T15:30:29;100168.69;;;0.15;78.72
34073;BME280;20346;52.702;16.886;2022-11-20T15:33:14;100162.72;;;0.13;78.80
34073;BME280;20346;52.702;16.886;2022-11-20T15:36:00;100161.03;;;0.13;78.79
34073;BME280;20346;52.702;16.886;2022-11-20T15:38:45;100153.35;;;0.10;78.80
34073;BME280;20346;52.702;16.886;2022-11-20T15:41:30;100144.84;;;0.08;78.79
34073;BME280;20346;52.702;16.886;2022-11-20T15:44:15;100144.81;;;0.07;78.78
34073;BME280;20346;52.702;16.886;2022-11-20T15:47:00;100150.70;;;0.04;78.76
34073;BME280;20346;52.702;16.886;2022-11-20T15:49:45;100143.87;;;0.02;78.76
34073;BME280;20346;52.702;16.886;2022-11-20T15:52:30;100143.87;;;0.02;78.81
34073;BME280;20346;52.702;16.886;2022-11-20T15:55:15;100143.02;;;0.01;78.78
34073;BME280;20346;52.702;16.886;2022-11-20T15:57:59;100142.57;;;-0.02;78.78